createdAt,value
2023-02-12T00:01:13.564Z,99.90
2023-02-12T00:03:41.730Z,99.90
2023-02-12T00:06:11.254Z,99.90
2023-02-12T00:08:40.027Z,99.90
2023-02-12T00:11:16.868Z,99.90
2023-02-12T00:13:44.747Z,99.90
2023-02-12T00:16:15.894Z,99.90
2023-02-12T00:18:44.250Z,99.90
2023-02-12T00:21:14.129Z,99.90
2023-02-12T00:23:42.017Z,99.90
2023-02-12T00:26:15.009Z,99.90
2023-02-12T00:28:47.450Z,99.90
2023-02-12T00:31:18.324Z,99.90
2023-02-12T00:33:46.348Z,99.90
2023-02-12T00:36:17.828Z,99.90
2023-02-12T00:38:46.241Z,99.90
2023-02-12T00:41:14.519Z,99.90
2023-02-12T00:43:42.400Z,99.90
2023-02-12T00:46:10.568Z,99.90
2023-02-12T00:48:38.481Z,99.90
2023-02-12T00:51:06.312Z,99.90
2023-02-12T00:53:34.721Z,99.90
2023-02-12T00:56:03.056Z,99.90
2023-02-12T00:58:30.905Z,99.90
2023-02-12T01:01:00.566Z,99.90
2023-02-12T01:03:28.536Z,99.90
2023-02-12T01:05:57.876Z,99.90
2023-02-12T01:08:25.902Z,99.90
2023-02-12T01:11:02.245Z,99.90
2023-02-12T01:13:31.804Z,99.90
2023-02-12T01:16:08.964Z,99.90
2023-02-12T01:18:37.969Z,99.90
2023-02-12T01:21:16.089Z,99.90
2023-02-12T01:23:46.016Z,99.90
2023-02-12T01:26:15.249Z,99.90
2023-02-12T01:28:45.686Z,99.90
2023-02-12T01:31:16.499Z,99.90
2023-02-12T01:33:47.178Z,99.90
2023-02-12T01:36:15.029Z,99.90
2023-02-12T01:38:42.653Z,99.90
2023-02-12T01:41:14.591Z,99.90
2023-02-12T01:43:42.475Z,99.90
2023-02-12T01:46:14.235Z,99.90
2023-02-12T01:48:48.410Z,99.90
2023-02-12T01:51:20.599Z,99.90
2023-02-12T01:53:54.650Z,99.90
2023-02-12T01:56:24.352Z,99.90
2023-02-12T01:58:54.192Z,99.90
2023-02-12T02:01:28.768Z,99.90
2023-02-12T02:04:10.454Z,99.90
2023-02-12T02:06:59.566Z,99.90
2023-02-12T02:09:29.459Z,99.90
2023-02-12T02:12:15.962Z,99.90
2023-02-12T02:14:44.633Z,99.90
2023-02-12T02:17:30.326Z,99.90
2023-02-12T02:20:07.534Z,99.90
2023-02-12T02:22:48.711Z,99.90
2023-02-12T02:25:28.885Z,99.90
2023-02-12T02:28:21.484Z,99.90
2023-02-12T02:31:00.983Z,99.90
2023-02-12T02:33:37.962Z,99.90
2023-02-12T02:36:17.646Z,99.90
2023-02-12T02:39:05.204Z,99.90
2023-02-12T02:41:44.969Z,99.90
2023-02-12T02:44:24.209Z,99.90
2023-02-12T02:46:53.486Z,99.90
2023-02-12T02:49:37.323Z,99.90
2023-02-12T02:52:09.849Z,99.90
2023-02-12T02:54:52.923Z,99.90
2023-02-12T02:57:26.416Z,99.90
2023-02-12T03:00:00.786Z,99.90
2023-02-12T03:02:33.601Z,99.90
2023-02-12T03:05:07.610Z,99.90
2023-02-12T03:07:44.502Z,99.90
2023-02-12T03:10:18.699Z,99.90
2023-02-12T03:13:19.584Z,99.90
2023-02-12T03:16:03.087Z,99.90
2023-02-12T03:18:41.698Z,99.90
2023-02-12T03:21:20.648Z,99.90
2023-02-12T03:24:21.448Z,99.90
2023-02-12T03:26:54.933Z,99.90
2023-02-12T03:29:22.781Z,99.90
2023-02-12T03:32:17.931Z,99.90
2023-02-12T03:34:54.595Z,99.90
2023-02-12T03:37:57.862Z,99.90
2023-02-12T03:41:05.373Z,99.90
2023-02-12T03:44:15.850Z,99.90
2023-02-12T03:46:51.517Z,99.90
2023-02-12T03:49:31.452Z,99.90
2023-02-12T03:51:59.634Z,99.90
2023-02-12T03:54:27.848Z,99.90
2023-02-12T03:57:05.173Z,99.90
2023-02-12T03:59:36.593Z,99.90
2023-02-12T04:02:05.059Z,99.90
2023-02-12T04:04:33.380Z,99.90
2023-02-12T04:07:01.502Z,99.90
2023-02-12T04:09:31.164Z,99.90
2023-02-12T04:12:13.909Z,99.90
2023-02-12T04:15:14.211Z,99.90
2023-02-12T04:17:54.656Z,99.90
2023-02-12T04:20:30.604Z,99.90
2023-02-12T04:23:13.185Z,99.90
2023-02-12T04:26:01.769Z,99.90
2023-02-12T04:28:38.610Z,99.90
2023-02-12T04:31:10.450Z,99.90
2023-02-12T04:33:47.381Z,99.90
2023-02-12T04:36:25.361Z,99.90
2023-02-12T04:39:18.193Z,99.90
2023-02-12T04:41:45.921Z,99.90
2023-02-12T04:44:15.672Z,99.90
2023-02-12T04:46:43.340Z,99.90
2023-02-12T04:49:16.724Z,99.90
2023-02-12T04:51:45.288Z,99.90
2023-02-12T04:54:13.872Z,99.90
2023-02-12T04:56:41.623Z,99.90
2023-02-12T04:59:09.908Z,99.90
2023-02-12T05:01:39.514Z,99.90
2023-02-12T05:04:08.166Z,99.90
2023-02-12T05:06:36.953Z,99.90
2023-02-12T05:09:05.964Z,99.90
2023-02-12T05:11:33.791Z,99.90
2023-02-12T05:14:02.012Z,99.90
2023-02-12T05:16:29.812Z,99.90
2023-02-12T05:18:57.887Z,99.90
2023-02-12T05:21:25.572Z,99.90
2023-02-12T05:23:53.302Z,99.90
2023-02-12T05:26:22.260Z,99.90
2023-02-12T05:28:49.999Z,99.90
2023-02-12T05:31:21.484Z,99.90
2023-02-12T05:33:50.157Z,99.90
2023-02-12T05:36:21.805Z,99.90
2023-02-12T05:38:51.761Z,99.90
2023-02-12T05:41:22.290Z,99.90
2023-02-12T05:43:51.074Z,99.90
2023-02-12T05:46:20.453Z,99.90
2023-02-12T05:48:48.527Z,99.90
2023-02-12T05:51:21.760Z,99.90
2023-02-12T05:53:51.665Z,99.90
2023-02-12T05:56:27.953Z,99.90
2023-02-12T05:58:58.984Z,99.90
2023-02-12T06:01:29.393Z,99.90
2023-02-12T06:03:58.646Z,99.90
2023-02-12T06:06:28.134Z,99.90
2023-02-12T06:08:56.637Z,99.90
2023-02-12T06:11:24.947Z,99.90
2023-02-12T06:13:52.747Z,99.90
2023-02-12T06:16:28.183Z,99.90
2023-02-12T06:18:57.708Z,99.90
2023-02-12T06:21:27.564Z,99.90
2023-02-12T06:23:55.824Z,99.90
2023-02-12T06:26:24.312Z,99.90
2023-02-12T06:28:52.880Z,99.90
2023-02-12T06:31:26.845Z,99.90
2023-02-12T06:33:58.318Z,99.90
2023-02-12T06:36:26.107Z,99.90
2023-02-12T06:38:54.121Z,99.90
2023-02-12T06:41:22.509Z,99.90
2023-02-12T06:43:50.486Z,99.90
2023-02-12T06:46:18.650Z,99.90
2023-02-12T06:48:46.277Z,99.90
2023-02-12T06:51:17.147Z,99.90
2023-02-12T06:53:45.586Z,99.90
2023-02-12T06:56:14.388Z,99.90
2023-02-12T06:58:45.105Z,99.90
2023-02-12T07:01:17.805Z,99.90
2023-02-12T07:03:50.234Z,99.90
2023-02-12T07:06:18.368Z,99.90
2023-02-12T07:08:46.942Z,99.90
2023-02-12T07:11:14.816Z,99.90
2023-02-12T07:13:43.468Z,99.90
2023-02-12T07:16:14.609Z,99.90
2023-02-12T07:18:43.364Z,99.90
2023-02-12T07:21:12.507Z,99.90
2023-02-12T07:23:40.685Z,99.90
2023-02-12T07:26:12.066Z,99.90
2023-02-12T07:28:40.791Z,99.90
2023-02-12T07:31:14.404Z,99.90
2023-02-12T07:33:43.457Z,99.90
2023-02-12T07:36:13.901Z,99.90
2023-02-12T07:38:42.590Z,99.90
2023-02-12T07:41:14.786Z,99.90
2023-02-12T07:43:43.899Z,99.90
2023-02-12T07:46:16.663Z,99.90
2023-02-12T07:48:45.753Z,99.90
2023-02-12T07:51:16.574Z,99.90
2023-02-12T07:53:44.399Z,99.90
2023-02-12T07:56:15.182Z,99.90
2023-02-12T07:58:47.381Z,99.90
2023-02-12T08:01:27.082Z,99.90
2023-02-12T08:03:58.499Z,99.90
2023-02-12T08:06:28.571Z,99.90
2023-02-12T08:08:58.564Z,99.90
2023-02-12T08:11:27.423Z,99.90
2023-02-12T08:13:55.338Z,99.90
2023-02-12T08:16:26.833Z,99.90
2023-02-12T08:18:55.467Z,99.90
2023-02-12T08:21:25.933Z,99.90
2023-02-12T08:23:58.619Z,99.90
2023-02-12T08:26:29.491Z,99.90
2023-02-12T08:29:00.852Z,99.90
2023-02-12T08:31:38.256Z,99.90
2023-02-12T08:34:06.646Z,99.90
2023-02-12T08:36:40.024Z,99.90
2023-02-12T08:39:08.671Z,99.90
2023-02-12T08:41:36.445Z,99.90
2023-02-12T08:44:05.891Z,99.90
2023-02-12T08:46:36.820Z,99.90
2023-02-12T08:49:06.974Z,99.90
2023-02-12T08:51:36.274Z,99.90
2023-02-12T08:54:06.952Z,99.90
2023-02-12T08:56:36.034Z,99.90
2023-02-12T08:59:06.091Z,99.90
2023-02-12T09:01:38.596Z,99.90
2023-02-12T09:04:06.648Z,99.90
2023-02-12T09:06:35.536Z,99.90
2023-02-12T09:09:03.831Z,99.90
2023-02-12T09:11:31.591Z,99.90
2023-02-12T09:14:02.154Z,99.90
2023-02-12T09:16:32.437Z,99.90
2023-02-12T09:19:00.295Z,99.90
2023-02-12T09:21:28.609Z,99.90
2023-02-12T09:23:56.390Z,99.90
2023-02-12T09:26:26.288Z,99.90
2023-02-12T09:28:54.521Z,99.90
2023-02-12T09:31:26.713Z,99.90
2023-02-12T09:34:00.483Z,99.90
2023-02-12T09:36:28.474Z,99.90
2023-02-12T09:38:56.820Z,99.90
2023-02-12T09:41:33.433Z,99.90
2023-02-12T09:44:04.053Z,99.90
2023-02-12T09:46:51.980Z,99.90
2023-02-12T09:49:46.130Z,99.90
2023-02-12T09:52:19.276Z,99.90
2023-02-12T09:54:49.494Z,99.90
2023-02-12T09:57:31.399Z,99.90
2023-02-12T10:00:05.369Z,99.90
2023-02-12T10:02:39.577Z,99.90
2023-02-12T10:05:21.202Z,99.90
2023-02-12T10:08:09.976Z,99.90
2023-02-12T10:10:50.792Z,99.90
2023-02-12T10:13:46.222Z,99.90
2023-02-12T10:16:38.453Z,99.90
2023-02-12T10:19:41.408Z,99.90
2023-02-12T10:22:32.016Z,99.90
2023-02-12T10:25:31.654Z,99.90
2023-02-12T10:28:07.801Z,99.90
2023-02-12T10:30:48.583Z,99.90
2023-02-12T10:33:30.876Z,99.90
2023-02-12T10:36:12.264Z,99.90
2023-02-12T10:38:47.120Z,99.90
2023-02-12T10:41:16.800Z,99.90
2023-02-12T10:43:44.696Z,99.90
2023-02-12T10:46:16.603Z,99.90
2023-02-12T10:48:54.347Z,99.90
2023-02-12T10:51:49.007Z,99.90
2023-02-12T10:54:36.922Z,99.90
2023-02-12T10:57:13.376Z,99.90
2023-02-12T10:59:46.553Z,99.90
2023-02-12T11:02:27.099Z,99.90
2023-02-12T11:04:56.108Z,99.90
2023-02-12T11:07:25.730Z,99.90
2023-02-12T11:09:55.805Z,99.90
2023-02-12T11:12:31.565Z,99.90
2023-02-12T11:15:23.688Z,99.90
2023-02-12T11:18:05.547Z,99.90
2023-02-12T11:20:53.740Z,99.90
2023-02-12T11:23:33.047Z,99.90
2023-02-12T11:26:19.268Z,99.90
2023-02-12T11:29:04.071Z,99.90
2023-02-12T11:31:35.357Z,99.90
2023-02-12T11:34:16.900Z,99.90
2023-02-12T11:36:48.133Z,99.90
2023-02-12T11:39:28.257Z,99.90
2023-02-12T11:42:04.853Z,99.90
2023-02-12T11:44:37.359Z,99.90
2023-02-12T11:47:10.626Z,99.90
2023-02-12T11:49:48.877Z,99.90
2023-02-12T11:52:26.017Z,99.90
2023-02-12T11:55:01.075Z,99.70
2023-02-12T11:57:47.384Z,99.20
2023-02-12T12:00:37.367Z,99.10
2023-02-12T12:03:25.332Z,99.00
2023-02-12T12:05:57.673Z,99.40
2023-02-12T12:08:33.452Z,98.70
2023-02-12T12:11:15.209Z,98.70
2023-02-12T12:14:17.307Z,98.30
2023-02-12T12:17:09.352Z,97.90
2023-02-12T12:20:00.011Z,97.20
2023-02-12T12:22:44.463Z,97.30
2023-02-12T12:25:26.379Z,96.20
2023-02-12T12:28:15.787Z,96.00
2023-02-12T12:31:01.681Z,96.10
2023-02-12T12:33:44.675Z,96.00
2023-02-12T12:36:33.280Z,95.40
2023-02-12T12:39:30.469Z,95.80
2023-02-12T12:42:32.479Z,95.60
2023-02-12T12:45:05.339Z,95.70
2023-02-12T12:48:17.132Z,95.30
2023-02-12T12:51:10.941Z,94.80
2023-02-12T12:53:45.255Z,95.40
2023-02-12T12:56:18.929Z,95.30
2023-02-12T12:59:21.650Z,94.80
2023-02-12T13:02:21.088Z,94.80
2023-02-12T13:05:10.649Z,94.90
2023-02-12T13:07:41.295Z,95.30
2023-02-12T13:10:29.932Z,95.70
2023-02-12T13:12:57.629Z,95.30
2023-02-12T13:15:43.517Z,96.10
2023-02-12T13:18:20.568Z,94.10
2023-02-12T13:21:17.364Z,92.00
2023-02-12T13:24:26.426Z,89.30
2023-02-12T13:27:06.061Z,90.00
2023-02-12T13:30:00.204Z,89.50
2023-02-12T13:32:35.099Z,87.20
2023-02-12T13:35:05.599Z,86.80
2023-02-12T13:37:45.389Z,85.90
2023-02-12T13:40:22.656Z,85.10
2023-02-12T13:43:19.578Z,84.10
2023-02-12T13:46:25.468Z,83.40
2023-02-12T13:49:20.832Z,82.60
2023-02-12T13:52:02.583Z,82.00
2023-02-12T13:54:57.250Z,80.10
2023-02-12T13:57:24.932Z,78.40
2023-02-12T13:59:54.662Z,76.60
2023-02-12T14:02:34.587Z,75.80
2023-02-12T14:05:16.027Z,75.70
2023-02-12T14:07:50.919Z,76.30
2023-02-12T14:10:27.129Z,76.50
2023-02-12T14:12:59.872Z,76.20
2023-02-12T14:15:38.015Z,76.90
2023-02-12T14:18:22.104Z,75.90
2023-02-12T14:21:12.452Z,77.40
2023-02-12T14:23:44.471Z,77.00
2023-02-12T14:26:19.524Z,77.50
2023-02-12T14:28:50.369Z,77.40
2023-02-12T14:31:31.897Z,77.30
2023-02-12T14:34:06.034Z,78.00
2023-02-12T14:36:33.629Z,78.50
2023-02-12T14:39:21.195Z,78.60
2023-02-12T14:41:54.574Z,79.30
2023-02-12T14:44:27.506Z,80.40
2023-02-12T14:47:05.324Z,81.10
2023-02-12T14:49:39.995Z,82.50
2023-02-12T14:52:13.858Z,81.20
2023-02-12T14:54:52.578Z,82.90
2023-02-12T14:57:46.364Z,83.10
2023-02-12T15:00:17.155Z,82.90
2023-02-12T15:02:49.610Z,83.00
2023-02-12T15:05:43.281Z,85.20
2023-02-12T15:08:32.714Z,86.30
2023-02-12T15:11:28.203Z,86.60
2023-02-12T15:14:15.960Z,87.20
2023-02-12T15:16:52.540Z,88.50
2023-02-12T15:19:39.289Z,89.70
2023-02-12T15:22:25.308Z,89.90
2023-02-12T15:24:53.072Z,90.50
2023-02-12T15:27:22.211Z,90.30
2023-02-12T15:29:55.833Z,90.30
2023-02-12T15:32:29.851Z,90.60
2023-02-12T15:34:57.714Z,91.00
2023-02-12T15:37:30.800Z,91.30
2023-02-12T15:40:01.984Z,91.40
2023-02-12T15:42:39.259Z,91.80
2023-02-12T15:45:16.360Z,92.20
2023-02-12T15:47:46.628Z,92.30
2023-02-12T15:50:17.091Z,92.30
2023-02-12T15:52:47.094Z,92.30
2023-02-12T15:55:18.990Z,92.50
2023-02-12T15:57:52.068Z,92.30
2023-02-12T16:00:25.596Z,92.50
2023-02-12T16:02:53.611Z,93.00
2023-02-12T16:05:22.685Z,93.20
2023-02-12T16:07:51.006Z,93.10
2023-02-12T16:10:20.727Z,93.20
2023-02-12T16:12:50.556Z,92.80
2023-02-12T16:15:28.711Z,92.40
2023-02-12T16:17:58.533Z,92.70
2023-02-12T16:20:30.826Z,92.60
2023-02-12T16:22:59.865Z,92.80
2023-02-12T16:25:30.793Z,92.80
2023-02-12T16:28:29.364Z,92.90
2023-02-12T16:31:15.360Z,93.20
2023-02-12T16:33:51.300Z,93.30
2023-02-12T16:36:24.974Z,93.50
2023-02-12T16:39:03.446Z,93.70
2023-02-12T16:41:52.678Z,94.00
2023-02-12T16:44:22.142Z,94.20
2023-02-12T16:46:53.361Z,94.30
2023-02-12T16:49:23.584Z,94.80
2023-02-12T16:51:52.620Z,95.10
2023-02-12T16:54:33.515Z,95.30
2023-02-12T16:57:01.937Z,95.90
2023-02-12T16:59:29.770Z,96.40
2023-02-12T17:02:17.697Z,96.90
2023-02-12T17:04:45.519Z,97.30
2023-02-12T17:07:20.658Z,97.70
2023-02-12T17:09:48.731Z,98.10
2023-02-12T17:12:16.945Z,98.30
2023-02-12T17:14:44.678Z,98.60
2023-02-12T17:17:12.434Z,98.80
2023-02-12T17:19:40.147Z,99.00
2023-02-12T17:22:16.414Z,99.40
2023-02-12T17:24:44.139Z,99.90
2023-02-12T17:27:13.861Z,99.40
2023-02-12T17:29:41.586Z,99.60
2023-02-12T17:32:09.553Z,99.40
2023-02-12T17:34:48.044Z,99.50
2023-02-12T17:37:18.232Z,99.40
2023-02-12T17:39:46.044Z,99.50
2023-02-12T17:42:13.722Z,99.50
2023-02-12T17:44:41.762Z,99.50
2023-02-12T17:47:09.454Z,99.70
2023-02-12T17:49:38.775Z,99.90
2023-02-12T17:52:07.441Z,99.90
2023-02-12T17:54:35.466Z,99.90
2023-02-12T17:57:03.371Z,99.90
2023-02-12T17:59:31.162Z,99.90
2023-02-12T18:01:59.481Z,99.90
2023-02-12T18:04:27.699Z,99.90
2023-02-12T18:06:57.070Z,99.90
2023-02-12T18:09:25.029Z,99.90
2023-02-12T18:11:52.741Z,99.90
2023-02-12T18:14:20.597Z,99.90
2023-02-12T18:16:48.912Z,99.90
2023-02-12T18:19:16.912Z,99.90
2023-02-12T18:21:44.992Z,99.90
2023-02-12T18:24:12.769Z,99.90
2023-02-12T18:26:40.607Z,99.90
2023-02-12T18:29:08.284Z,99.90
2023-02-12T18:31:36.677Z,99.90
2023-02-12T18:34:07.825Z,99.90
2023-02-12T18:36:35.584Z,99.90
2023-02-12T18:39:04.040Z,99.90
2023-02-12T18:41:33.438Z,99.90
2023-02-12T18:44:01.250Z,99.90
2023-02-12T18:46:31.635Z,99.90
2023-02-12T18:49:00.763Z,99.90
2023-02-12T18:51:31.926Z,99.90
2023-02-12T18:54:02.929Z,99.90
2023-02-12T18:56:41.087Z,99.90
2023-02-12T18:59:08.984Z,99.90
2023-02-12T19:01:36.924Z,99.90
2023-02-12T19:04:07.287Z,99.90
2023-02-12T19:06:41.769Z,99.90
2023-02-12T19:09:11.665Z,99.90
2023-02-12T19:11:39.518Z,99.90
2023-02-12T19:14:07.281Z,99.90
2023-02-12T19:16:35.440Z,99.90
2023-02-12T19:19:03.287Z,99.90
2023-02-12T19:21:32.670Z,99.90
2023-02-12T19:24:02.656Z,99.90
2023-02-12T19:26:31.779Z,99.90
2023-02-12T19:29:00.094Z,99.90
2023-02-12T19:31:36.622Z,99.90
2023-02-12T19:34:07.686Z,99.90
2023-02-12T19:36:36.709Z,99.90
2023-02-12T19:39:06.036Z,99.90
2023-02-12T19:41:41.207Z,99.90
2023-02-12T19:44:17.238Z,99.90
2023-02-12T19:46:46.997Z,99.90
2023-02-12T19:49:17.360Z,99.90
2023-02-12T19:51:45.193Z,99.90
2023-02-12T19:54:14.773Z,99.90
2023-02-12T19:56:44.257Z,99.90
2023-02-12T19:59:15.526Z,99.90
2023-02-12T20:01:44.163Z,99.90
2023-02-12T20:04:18.764Z,99.90
2023-02-12T20:06:47.703Z,99.90
2023-02-12T20:09:15.540Z,99.90
2023-02-12T20:11:43.836Z,99.90
2023-02-12T20:14:13.450Z,99.90
2023-02-12T20:16:43.973Z,99.90
2023-02-12T20:19:13.381Z,99.90
2023-02-12T20:21:42.924Z,99.90
2023-02-12T20:24:10.695Z,99.90
2023-02-12T20:26:38.682Z,99.90
2023-02-12T20:29:06.662Z,99.90
2023-02-12T20:31:36.687Z,99.90
2023-02-12T20:34:11.328Z,99.90
2023-02-12T20:36:41.200Z,99.90
2023-02-12T20:39:11.117Z,99.90
2023-02-12T20:41:38.928Z,99.90
2023-02-12T20:44:09.521Z,99.90
2023-02-12T20:46:39.604Z,99.90
2023-02-12T20:49:07.580Z,99.90
2023-02-12T20:51:35.264Z,99.90
2023-02-12T20:54:03.366Z,99.90
2023-02-12T20:56:34.762Z,99.90
2023-02-12T20:59:03.567Z,99.90
2023-02-12T21:01:37.494Z,99.90
2023-02-12T21:04:06.205Z,99.90
2023-02-12T21:06:34.394Z,99.90
2023-02-12T21:09:02.581Z,99.90
2023-02-12T21:11:30.324Z,99.90
2023-02-12T21:14:18.533Z,99.90
2023-02-12T21:16:47.508Z,99.90
2023-02-12T21:19:15.325Z,99.90
2023-02-12T21:21:46.977Z,99.90
2023-02-12T21:24:18.497Z,99.90
2023-02-12T21:26:46.182Z,99.90
2023-02-12T21:29:14.068Z,99.90
2023-02-12T21:31:44.454Z,99.90
2023-02-12T21:34:19.138Z,99.90
2023-02-12T21:36:48.710Z,99.90
2023-02-12T21:39:26.446Z,99.90
2023-02-12T21:42:01.074Z,99.90
2023-02-12T21:44:30.620Z,99.90
2023-02-12T21:46:59.027Z,99.90
2023-02-12T21:49:28.183Z,99.90
2023-02-12T21:51:59.018Z,99.90
2023-02-12T21:54:27.685Z,99.90
2023-02-12T21:56:56.237Z,99.90
2023-02-12T21:59:25.060Z,99.90
2023-02-12T22:01:55.873Z,99.90
2023-02-12T22:04:23.825Z,99.90
2023-02-12T22:06:52.925Z,99.90
2023-02-12T22:09:23.764Z,99.90
2023-02-12T22:11:52.889Z,99.90
2023-02-12T22:14:22.147Z,99.90
2023-02-12T22:16:49.985Z,99.90
2023-02-12T22:19:18.266Z,99.90
2023-02-12T22:21:46.456Z,99.90
2023-02-12T22:24:16.498Z,99.90
2023-02-12T22:26:45.332Z,99.90
2023-02-12T22:29:15.732Z,99.90
2023-02-12T22:31:45.445Z,99.90
2023-02-12T22:34:15.927Z,99.90
2023-02-12T22:36:44.238Z,99.90
2023-02-12T22:39:13.581Z,99.90
2023-02-12T22:41:42.617Z,99.90
2023-02-12T22:44:12.362Z,99.90
2023-02-12T22:46:41.410Z,99.90
2023-02-12T22:49:09.178Z,99.90
2023-02-12T22:51:39.145Z,99.90
2023-02-12T22:54:08.672Z,99.90
2023-02-12T22:56:36.366Z,99.90
2023-02-12T22:59:04.155Z,99.90
2023-02-12T23:01:32.057Z,99.90
2023-02-12T23:03:59.996Z,99.90
2023-02-12T23:06:29.748Z,99.90
2023-02-12T23:09:03.103Z,99.90
2023-02-12T23:11:32.299Z,99.90
2023-02-12T23:14:01.035Z,99.90
2023-02-12T23:16:29.217Z,99.90
2023-02-12T23:18:58.219Z,99.90
2023-02-12T23:21:26.976Z,99.90
2023-02-12T23:23:55.316Z,99.90
2023-02-12T23:26:23.128Z,99.90
2023-02-12T23:28:51.154Z,99.90
2023-02-12T23:31:18.957Z,99.90
2023-02-12T23:33:46.781Z,99.90
2023-02-12T23:36:15.633Z,99.90
2023-02-12T23:38:43.401Z,99.90
2023-02-12T23:41:11.122Z,99.90
2023-02-12T23:43:38.805Z,99.90
2023-02-12T23:46:06.657Z,99.90
2023-02-12T23:48:34.416Z,99.90
2023-02-12T23:51:02.146Z,99.90
2023-02-12T23:53:29.961Z,99.90
2023-02-12T23:55:57.747Z,99.90
2023-02-12T23:58:25.412Z,99.90
